sensor_id;sensor_type;location;lat;lon;timestamp;P1;durP1;ratioP1;P2;durP2;ratioP2
13244;SDS011;6689;53.400;12.486;2023-08-12T00:00:59;5.43;;;3.20;;
13244;SDS011;6689;53.400;12.486;2023-08-12T00:03:27;3.58;;;2.67;;
13244;SDS011;6689;53.400;12.486;2023-08-12T00:05:54;3.53;;;2.80;;
13244;SDS011;6689;53.400;12.486;2023-08-12T00:08:22;4.35;;;3.30;;
13244;SDS011;6689;53.400;12.486;2023-08-12T00:10:55;5.53;;;2.80;;
13244;SDS011;6689;53.400;12.486;2023-08-12T00:13:22;4.43;;;2.83;;
13244;SDS011;6689;53.400;12.486;2023-08-12T00:15:51;6.53;;;2.90;;
13244;SDS011;6689;53.400;12.486;2023-08-12T00:18:19;8.00;;;3.28;;
13244;SDS011;6689;53.400;12.486;2023-08-12T00:20:46;4.57;;;3.10;;
13244;SDS011;6689;53.400;12.486;2023-08-12T00:23:14;4.07;;;2.63;;
13244;SDS011;6689;53.400;12.486;2023-08-12T00:25:41;6.65;;;3.78;;
13244;SDS011;6689;53.400;12.486;2023-08-12T00:28:08;5.32;;;2.60;;
13244;SDS011;6689;53.400;12.486;2023-08-12T00:30:38;3.92;;;2.60;;
13244;SDS011;6689;53.400;12.486;2023-08-12T00:33:06;6.25;;;2.92;;
13244;SDS011;6689;53.400;12.486;2023-08-12T00:35:34;5.28;;;3.05;;
13244;SDS011;6689;53.400;12.486;2023-08-12T00:38:01;4.63;;;2.70;;
13244;SDS011;6689;53.400;12.486;2023-08-12T00:40:28;5.28;;;3.08;;
13244;SDS011;6689;53.400;12.486;2023-08-12T00:42:56;13.45;;;3.13;;
13244;SDS011;6689;53.400;12.486;2023-08-12T00:45:23;4.75;;;3.15;;
13244;SDS011;6689;53.400;12.486;2023-08-12T00:47:52;5.75;;;2.97;;
13244;SDS011;6689;53.400;12.486;2023-08-12T00:50:22;3.80;;;2.75;;
13244;SDS011;6689;53.400;12.486;2023-08-12T00:52:49;4.60;;;2.95;;
13244;SDS011;6689;53.400;12.486;2023-08-12T00:55:18;5.40;;;3.15;;
13244;SDS011;6689;53.400;12.486;2023-08-12T00:57:46;5.90;;;2.85;;
13244;SDS011;6689;53.400;12.486;2023-08-12T01:00:14;5.65;;;3.22;;
13244;SDS011;6689;53.400;12.486;2023-08-12T01:02:45;5.18;;;3.03;;
13244;SDS011;6689;53.400;12.486;2023-08-12T01:05:15;5.60;;;3.28;;
13244;SDS011;6689;53.400;12.486;2023-08-12T01:07:43;6.93;;;3.17;;
13244;SDS011;6689;53.400;12.486;2023-08-12T01:10:11;4.65;;;3.20;;
13244;SDS011;6689;53.400;12.486;2023-08-12T01:12:43;6.25;;;3.30;;
13244;SDS011;6689;53.400;12.486;2023-08-12T01:15:17;8.60;;;3.83;;
13244;SDS011;6689;53.400;12.486;2023-08-12T01:17:49;4.72;;;2.92;;
13244;SDS011;6689;53.400;12.486;2023-08-12T01:20:19;5.10;;;3.65;;
13244;SDS011;6689;53.400;12.486;2023-08-12T01:22:55;3.85;;;2.95;;
13244;SDS011;6689;53.400;12.486;2023-08-12T01:25:25;4.15;;;3.10;;
13244;SDS011;6689;53.400;12.486;2023-08-12T01:27:53;4.85;;;3.35;;
13244;SDS011;6689;53.400;12.486;2023-08-12T01:30:21;3.47;;;2.85;;
13244;SDS011;6689;53.400;12.486;2023-08-12T01:32:53;3.90;;;3.08;;
13244;SDS011;6689;53.400;12.486;2023-08-12T01:35:24;6.40;;;3.35;;
13244;SDS011;6689;53.400;12.486;2023-08-12T01:38:00;4.05;;;3.13;;
13244;SDS011;6689;53.400;12.486;2023-08-12T01:40:32;4.00;;;3.08;;
13244;SDS011;6689;53.400;12.486;2023-08-12T01:43:01;9.68;;;3.30;;
13244;SDS011;6689;53.400;12.486;2023-08-12T01:45:32;4.70;;;3.22;;
13244;SDS011;6689;53.400;12.486;2023-08-12T01:48:00;3.45;;;3.00;;
13244;SDS011;6689;53.400;12.486;2023-08-12T01:50:27;4.60;;;3.08;;
13244;SDS011;6689;53.400;12.486;2023-08-12T01:52:54;5.60;;;2.95;;
13244;SDS011;6689;53.400;12.486;2023-08-12T01:55:23;5.22;;;3.25;;
13244;SDS011;6689;53.400;12.486;2023-08-12T01:57:51;4.07;;;2.78;;
13244;SDS011;6689;53.400;12.486;2023-08-12T02:00:20;6.00;;;3.25;;
13244;SDS011;6689;53.400;12.486;2023-08-12T02:02:49;3.80;;;3.08;;
13244;SDS011;6689;53.400;12.486;2023-08-12T02:05:16;3.85;;;3.20;;
13244;SDS011;6689;53.400;12.486;2023-08-12T02:07:43;3.63;;;3.13;;
13244;SDS011;6689;53.400;12.486;2023-08-12T02:10:11;3.65;;;2.80;;
13244;SDS011;6689;53.400;12.486;2023-08-12T02:12:39;8.27;;;3.22;;
13244;SDS011;6689;53.400;12.486;2023-08-12T02:15:09;4.50;;;3.17;;
13244;SDS011;6689;53.400;12.486;2023-08-12T02:17:36;4.03;;;3.40;;
13244;SDS011;6689;53.400;12.486;2023-08-12T02:20:04;4.05;;;3.03;;
13244;SDS011;6689;53.400;12.486;2023-08-12T02:22:32;3.92;;;2.90;;
13244;SDS011;6689;53.400;12.486;2023-08-12T02:25:00;6.90;;;3.38;;
13244;SDS011;6689;53.400;12.486;2023-08-12T02:27:28;3.80;;;2.85;;
13244;SDS011;6689;53.400;12.486;2023-08-12T02:29:55;4.93;;;3.03;;
13244;SDS011;6689;53.400;12.486;2023-08-12T02:32:24;6.53;;;3.25;;
13244;SDS011;6689;53.400;12.486;2023-08-12T02:34:51;5.95;;;3.40;;
13244;SDS011;6689;53.400;12.486;2023-08-12T02:37:19;6.95;;;3.45;;
13244;SDS011;6689;53.400;12.486;2023-08-12T02:39:46;9.20;;;2.85;;
13244;SDS011;6689;53.400;12.486;2023-08-12T02:42:14;6.90;;;2.90;;
13244;SDS011;6689;53.400;12.486;2023-08-12T02:44:42;9.30;;;3.60;;
13244;SDS011;6689;53.400;12.486;2023-08-12T02:47:09;4.70;;;3.30;;
13244;SDS011;6689;53.400;12.486;2023-08-12T02:49:39;5.18;;;3.20;;
13244;SDS011;6689;53.400;12.486;2023-08-12T02:52:06;5.05;;;2.78;;
13244;SDS011;6689;53.400;12.486;2023-08-12T02:54:35;4.32;;;3.17;;
13244;SDS011;6689;53.400;12.486;2023-08-12T02:57:02;5.40;;;3.15;;
13244;SDS011;6689;53.400;12.486;2023-08-12T02:59:30;6.38;;;3.60;;
13244;SDS011;6689;53.400;12.486;2023-08-12T03:01:57;5.45;;;2.78;;
13244;SDS011;6689;53.400;12.486;2023-08-12T03:04:24;3.17;;;2.65;;
13244;SDS011;6689;53.400;12.486;2023-08-12T03:07:02;9.95;;;3.38;;
13244;SDS011;6689;53.400;12.486;2023-08-12T03:09:30;3.60;;;3.10;;
13244;SDS011;6689;53.400;12.486;2023-08-12T03:11:57;7.05;;;3.00;;
13244;SDS011;6689;53.400;12.486;2023-08-12T03:14:28;4.75;;;3.25;;
13244;SDS011;6689;53.400;12.486;2023-08-12T03:16:55;3.88;;;3.47;;
13244;SDS011;6689;53.400;12.486;2023-08-12T03:19:23;4.28;;;2.83;;
13244;SDS011;6689;53.400;12.486;2023-08-12T03:21:50;5.05;;;3.72;;
13244;SDS011;6689;53.400;12.486;2023-08-12T03:24:18;5.47;;;3.35;;
13244;SDS011;6689;53.400;12.486;2023-08-12T03:26:46;4.65;;;3.20;;
13244;SDS011;6689;53.400;12.486;2023-08-12T03:29:13;7.15;;;3.25;;
13244;SDS011;6689;53.400;12.486;2023-08-12T03:31:41;5.20;;;3.00;;
13244;SDS011;6689;53.400;12.486;2023-08-12T03:34:10;3.60;;;2.83;;
13244;SDS011;6689;53.400;12.486;2023-08-12T03:36:37;3.40;;;2.58;;
13244;SDS011;6689;53.400;12.486;2023-08-12T03:39:07;3.72;;;2.78;;
13244;SDS011;6689;53.400;12.486;2023-08-12T03:41:36;6.20;;;3.00;;
13244;SDS011;6689;53.400;12.486;2023-08-12T03:44:04;3.85;;;2.88;;
13244;SDS011;6689;53.400;12.486;2023-08-12T03:46:31;5.45;;;3.28;;
13244;SDS011;6689;53.400;12.486;2023-08-12T03:48:58;3.38;;;2.75;;
13244;SDS011;6689;53.400;12.486;2023-08-12T03:51:26;3.50;;;3.08;;
13244;SDS011;6689;53.400;12.486;2023-08-12T03:53:53;3.85;;;3.15;;
13244;SDS011;6689;53.400;12.486;2023-08-12T03:56:21;7.10;;;3.00;;
13244;SDS011;6689;53.400;12.486;2023-08-12T03:58:49;5.28;;;2.65;;
13244;SDS011;6689;53.400;12.486;2023-08-12T04:01:18;5.78;;;2.80;;
13244;SDS011;6689;53.400;12.486;2023-08-12T04:03:46;3.08;;;2.50;;
13244;SDS011;6689;53.400;12.486;2023-08-12T04:06:14;4.00;;;2.97;;
13244;SDS011;6689;53.400;12.486;2023-08-12T04:08:42;3.47;;;2.83;;
13244;SDS011;6689;53.400;12.486;2023-08-12T04:11:09;4.68;;;2.83;;
13244;SDS011;6689;53.400;12.486;2023-08-12T04:13:36;6.13;;;3.45;;
13244;SDS011;6689;53.400;12.486;2023-08-12T04:16:05;4.45;;;3.38;;
13244;SDS011;6689;53.400;12.486;2023-08-12T04:18:33;5.60;;;3.05;;
13244;SDS011;6689;53.400;12.486;2023-08-12T04:21:00;5.85;;;3.13;;
13244;SDS011;6689;53.400;12.486;2023-08-12T04:23:27;7.47;;;3.20;;
13244;SDS011;6689;53.400;12.486;2023-08-12T04:25:55;5.13;;;3.30;;
13244;SDS011;6689;53.400;12.486;2023-08-12T04:28:22;4.43;;;3.40;;
13244;SDS011;6689;53.400;12.486;2023-08-12T04:30:49;5.88;;;3.88;;
13244;SDS011;6689;53.400;12.486;2023-08-12T04:33:19;3.95;;;2.70;;
13244;SDS011;6689;53.400;12.486;2023-08-12T04:35:46;3.97;;;2.90;;
13244;SDS011;6689;53.400;12.486;2023-08-12T04:38:13;5.78;;;2.92;;
13244;SDS011;6689;53.400;12.486;2023-08-12T04:40:42;4.78;;;3.63;;
13244;SDS011;6689;53.400;12.486;2023-08-12T04:43:10;3.92;;;3.53;;
13244;SDS011;6689;53.400;12.486;2023-08-12T04:45:38;4.47;;;3.17;;
13244;SDS011;6689;53.400;12.486;2023-08-12T04:48:06;4.75;;;3.28;;
13244;SDS011;6689;53.400;12.486;2023-08-12T04:50:35;3.63;;;3.08;;
13244;SDS011;6689;53.400;12.486;2023-08-12T04:53:04;3.90;;;3.15;;
13244;SDS011;6689;53.400;12.486;2023-08-12T04:55:32;4.95;;;3.15;;
13244;SDS011;6689;53.400;12.486;2023-08-12T04:57:59;4.85;;;3.03;;
13244;SDS011;6689;53.400;12.486;2023-08-12T05:00:27;4.93;;;3.25;;
13244;SDS011;6689;53.400;12.486;2023-08-12T05:02:55;6.28;;;3.20;;
13244;SDS011;6689;53.400;12.486;2023-08-12T05:05:22;4.60;;;3.40;;
13244;SDS011;6689;53.400;12.486;2023-08-12T05:07:51;6.07;;;3.40;;
13244;SDS011;6689;53.400;12.486;2023-08-12T05:10:18;6.43;;;3.40;;
13244;SDS011;6689;53.400;12.486;2023-08-12T05:12:45;3.70;;;2.92;;
13244;SDS011;6689;53.400;12.486;2023-08-12T05:15:15;5.15;;;2.80;;
13244;SDS011;6689;53.400;12.486;2023-08-12T05:17:44;6.45;;;3.17;;
13244;SDS011;6689;53.400;12.486;2023-08-12T05:20:12;8.93;;;3.33;;
13244;SDS011;6689;53.400;12.486;2023-08-12T05:22:39;3.63;;;2.58;;
13244;SDS011;6689;53.400;12.486;2023-08-12T05:25:09;4.63;;;2.58;;
13244;SDS011;6689;53.400;12.486;2023-08-12T05:27:36;3.70;;;2.75;;
13244;SDS011;6689;53.400;12.486;2023-08-12T05:30:06;4.05;;;2.92;;
13244;SDS011;6689;53.400;12.486;2023-08-12T05:32:34;4.88;;;3.25;;
13244;SDS011;6689;53.400;12.486;2023-08-12T05:35:01;4.53;;;3.30;;
13244;SDS011;6689;53.400;12.486;2023-08-12T05:37:30;4.35;;;3.17;;
13244;SDS011;6689;53.400;12.486;2023-08-12T05:39:58;4.50;;;3.35;;
13244;SDS011;6689;53.400;12.486;2023-08-12T05:42:27;7.15;;;3.55;;
13244;SDS011;6689;53.400;12.486;2023-08-12T05:44:54;6.15;;;3.33;;
13244;SDS011;6689;53.400;12.486;2023-08-12T05:47:21;4.68;;;3.20;;
13244;SDS011;6689;53.400;12.486;2023-08-12T05:49:50;5.60;;;3.17;;
13244;SDS011;6689;53.400;12.486;2023-08-12T05:52:17;4.53;;;3.33;;
13244;SDS011;6689;53.400;12.486;2023-08-12T05:54:44;4.90;;;3.05;;
13244;SDS011;6689;53.400;12.486;2023-08-12T05:57:11;4.63;;;3.35;;
13244;SDS011;6689;53.400;12.486;2023-08-12T05:59:40;4.72;;;3.60;;
13244;SDS011;6689;53.400;12.486;2023-08-12T06:02:07;7.25;;;3.17;;
13244;SDS011;6689;53.400;12.486;2023-08-12T06:04:35;6.00;;;2.85;;
13244;SDS011;6689;53.400;12.486;2023-08-12T06:07:03;3.95;;;2.78;;
13244;SDS011;6689;53.400;12.486;2023-08-12T06:09:31;5.53;;;3.25;;
13244;SDS011;6689;53.400;12.486;2023-08-12T06:11:58;3.95;;;3.10;;
13244;SDS011;6689;53.400;12.486;2023-08-12T06:14:25;3.55;;;2.92;;
13244;SDS011;6689;53.400;12.486;2023-08-12T06:16:54;6.28;;;3.33;;
13244;SDS011;6689;53.400;12.486;2023-08-12T06:19:21;4.70;;;3.03;;
13244;SDS011;6689;53.400;12.486;2023-08-12T06:21:48;6.72;;;3.20;;
13244;SDS011;6689;53.400;12.486;2023-08-12T06:24:16;3.80;;;2.85;;
13244;SDS011;6689;53.400;12.486;2023-08-12T06:26:43;8.35;;;2.95;;
13244;SDS011;6689;53.400;12.486;2023-08-12T06:29:10;4.25;;;2.92;;
13244;SDS011;6689;53.400;12.486;2023-08-12T06:31:38;4.00;;;3.10;;
13244;SDS011;6689;53.400;12.486;2023-08-12T06:34:07;5.82;;;3.42;;
13244;SDS011;6689;53.400;12.486;2023-08-12T06:36:35;3.28;;;2.80;;
13244;SDS011;6689;53.400;12.486;2023-08-12T06:39:03;4.68;;;2.85;;
13244;SDS011;6689;53.400;12.486;2023-08-12T06:41:30;8.75;;;4.10;;
13244;SDS011;6689;53.400;12.486;2023-08-12T06:43:59;6.85;;;3.30;;
13244;SDS011;6689;53.400;12.486;2023-08-12T06:46:29;5.32;;;3.28;;
13244;SDS011;6689;53.400;12.486;2023-08-12T06:48:57;6.47;;;3.80;;
13244;SDS011;6689;53.400;12.486;2023-08-12T06:51:27;4.13;;;3.10;;
13244;SDS011;6689;53.400;12.486;2023-08-12T06:53:54;8.73;;;3.20;;
13244;SDS011;6689;53.400;12.486;2023-08-12T06:56:21;9.80;;;3.08;;
13244;SDS011;6689;53.400;12.486;2023-08-12T06:58:50;9.00;;;3.40;;
13244;SDS011;6689;53.400;12.486;2023-08-12T07:01:18;8.07;;;3.75;;
13244;SDS011;6689;53.400;12.486;2023-08-12T07:03:46;5.72;;;2.85;;
13244;SDS011;6689;53.400;12.486;2023-08-12T07:06:13;4.15;;;3.35;;
13244;SDS011;6689;53.400;12.486;2023-08-12T07:08:41;4.28;;;3.28;;
13244;SDS011;6689;53.400;12.486;2023-08-12T07:11:09;8.02;;;2.97;;
13244;SDS011;6689;53.400;12.486;2023-08-12T07:13:36;4.15;;;2.85;;
13244;SDS011;6689;53.400;12.486;2023-08-12T07:16:03;3.78;;;3.10;;
13244;SDS011;6689;53.400;12.486;2023-08-12T07:18:31;4.40;;;3.15;;
13244;SDS011;6689;53.400;12.486;2023-08-12T07:20:58;4.40;;;3.28;;
13244;SDS011;6689;53.400;12.486;2023-08-12T07:23:28;4.90;;;3.17;;
13244;SDS011;6689;53.400;12.486;2023-08-12T07:25:57;4.10;;;2.80;;
13244;SDS011;6689;53.400;12.486;2023-08-12T07:28:24;4.38;;;3.20;;
13244;SDS011;6689;53.400;12.486;2023-08-12T07:30:51;5.95;;;3.90;;
13244;SDS011;6689;53.400;12.486;2023-08-12T07:33:19;5.43;;;3.60;;
13244;SDS011;6689;53.400;12.486;2023-08-12T07:35:47;3.92;;;3.35;;
13244;SDS011;6689;53.400;12.486;2023-08-12T07:38:14;8.93;;;3.33;;
13244;SDS011;6689;53.400;12.486;2023-08-12T07:40:41;3.97;;;3.10;;
13244;SDS011;6689;53.400;12.486;2023-08-12T07:43:11;3.83;;;3.00;;
13244;SDS011;6689;53.400;12.486;2023-08-12T07:45:38;4.20;;;2.92;;
13244;SDS011;6689;53.400;12.486;2023-08-12T07:48:07;4.38;;;3.05;;
13244;SDS011;6689;53.400;12.486;2023-08-12T07:50:35;12.13;;;4.00;;
13244;SDS011;6689;53.400;12.486;2023-08-12T07:53:02;5.80;;;3.40;;
13244;SDS011;6689;53.400;12.486;2023-08-12T07:55:30;4.00;;;3.17;;
13244;SDS011;6689;53.400;12.486;2023-08-12T07:57:59;3.63;;;2.92;;
13244;SDS011;6689;53.400;12.486;2023-08-12T08:00:28;7.72;;;3.25;;
13244;SDS011;6689;53.400;12.486;2023-08-12T08:02:55;3.40;;;3.03;;
13244;SDS011;6689;53.400;12.486;2023-08-12T08:05:26;5.03;;;3.40;;
13244;SDS011;6689;53.400;12.486;2023-08-12T08:07:53;3.65;;;2.83;;
13244;SDS011;6689;53.400;12.486;2023-08-12T08:10:20;5.43;;;3.15;;
13244;SDS011;6689;53.400;12.486;2023-08-12T08:12:48;5.05;;;3.13;;
13244;SDS011;6689;53.400;12.486;2023-08-12T08:15:15;8.65;;;3.25;;
13244;SDS011;6689;53.400;12.486;2023-08-12T08:17:44;6.93;;;3.97;;
13244;SDS011;6689;53.400;12.486;2023-08-12T08:20:11;5.93;;;3.30;;
13244;SDS011;6689;53.400;12.486;2023-08-12T08:22:40;6.25;;;3.45;;
13244;SDS011;6689;53.400;12.486;2023-08-12T08:25:09;5.30;;;3.08;;
13244;SDS011;6689;53.400;12.486;2023-08-12T08:27:37;9.93;;;3.40;;
13244;SDS011;6689;53.400;12.486;2023-08-12T08:30:04;5.25;;;3.13;;
13244;SDS011;6689;53.400;12.486;2023-08-12T08:32:34;4.80;;;3.75;;
13244;SDS011;6689;53.400;12.486;2023-08-12T08:35:04;5.22;;;4.00;;
13244;SDS011;6689;53.400;12.486;2023-08-12T08:37:32;7.07;;;3.38;;
13244;SDS011;6689;53.400;12.486;2023-08-12T08:39:59;6.80;;;3.40;;
13244;SDS011;6689;53.400;12.486;2023-08-12T08:42:28;3.80;;;2.78;;
13244;SDS011;6689;53.400;12.486;2023-08-12T08:44:56;4.07;;;3.45;;
13244;SDS011;6689;53.400;12.486;2023-08-12T08:47:26;7.03;;;3.40;;
13244;SDS011;6689;53.400;12.486;2023-08-12T08:49:54;3.30;;;2.90;;
13244;SDS011;6689;53.400;12.486;2023-08-12T08:52:25;4.60;;;3.35;;
13244;SDS011;6689;53.400;12.486;2023-08-12T08:54:52;5.07;;;3.17;;
13244;SDS011;6689;53.400;12.486;2023-08-12T08:57:20;4.53;;;3.08;;
13244;SDS011;6689;53.400;12.486;2023-08-12T08:59:47;6.35;;;3.47;;
13244;SDS011;6689;53.400;12.486;2023-08-12T09:02:15;4.70;;;3.33;;
13244;SDS011;6689;53.400;12.486;2023-08-12T09:04:43;7.75;;;2.97;;
13244;SDS011;6689;53.400;12.486;2023-08-12T09:07:13;5.65;;;3.42;;
13244;SDS011;6689;53.400;12.486;2023-08-12T09:09:44;6.28;;;3.58;;
13244;SDS011;6689;53.400;12.486;2023-08-12T09:12:13;4.93;;;3.47;;
13244;SDS011;6689;53.400;12.486;2023-08-12T09:14:43;5.07;;;3.38;;
13244;SDS011;6689;53.400;12.486;2023-08-12T09:17:10;5.63;;;3.10;;
13244;SDS011;6689;53.400;12.486;2023-08-12T09:19:38;4.22;;;3.33;;
13244;SDS011;6689;53.400;12.486;2023-08-12T09:22:07;5.55;;;3.35;;
13244;SDS011;6689;53.400;12.486;2023-08-12T09:24:35;6.20;;;3.80;;
13244;SDS011;6689;53.400;12.486;2023-08-12T09:27:08;5.82;;;3.63;;
13244;SDS011;6689;53.400;12.486;2023-08-12T09:29:36;6.13;;;3.42;;
13244;SDS011;6689;53.400;12.486;2023-08-12T09:32:08;3.75;;;3.35;;
13244;SDS011;6689;53.400;12.486;2023-08-12T09:34:37;5.97;;;3.55;;
13244;SDS011;6689;53.400;12.486;2023-08-12T09:37:04;7.30;;;4.13;;
13244;SDS011;6689;53.400;12.486;2023-08-12T09:39:33;3.70;;;3.28;;
13244;SDS011;6689;53.400;12.486;2023-08-12T09:42:02;4.28;;;3.35;;
13244;SDS011;6689;53.400;12.486;2023-08-12T09:44:31;8.73;;;3.22;;
13244;SDS011;6689;53.400;12.486;2023-08-12T09:47:01;7.95;;;3.80;;
13244;SDS011;6689;53.400;12.486;2023-08-12T09:49:29;5.28;;;3.88;;
13244;SDS011;6689;53.400;12.486;2023-08-12T09:51:57;4.15;;;3.25;;
13244;SDS011;6689;53.400;12.486;2023-08-12T09:54:25;9.38;;;3.25;;
13244;SDS011;6689;53.400;12.486;2023-08-12T09:56:54;5.00;;;3.13;;
13244;SDS011;6689;53.400;12.486;2023-08-12T09:59:27;4.50;;;3.50;;
13244;SDS011;6689;53.400;12.486;2023-08-12T10:01:59;5.68;;;3.67;;
13244;SDS011;6689;53.400;12.486;2023-08-12T10:04:31;3.28;;;2.92;;
13244;SDS011;6689;53.400;12.486;2023-08-12T10:07:05;5.95;;;3.42;;
13244;SDS011;6689;53.400;12.486;2023-08-12T10:09:32;7.28;;;3.38;;
13244;SDS011;6689;53.400;12.486;2023-08-12T10:12:02;4.15;;;3.40;;
13244;SDS011;6689;53.400;12.486;2023-08-12T10:14:32;6.63;;;3.70;;
13244;SDS011;6689;53.400;12.486;2023-08-12T10:16:59;5.88;;;4.00;;
13244;SDS011;6689;53.400;12.486;2023-08-12T10:19:27;4.18;;;3.28;;
13244;SDS011;6689;53.400;12.486;2023-08-12T10:21:56;4.57;;;3.47;;
13244;SDS011;6689;53.400;12.486;2023-08-12T10:24:25;6.00;;;3.78;;
13244;SDS011;6689;53.400;12.486;2023-08-12T10:26:54;5.13;;;3.83;;
13244;SDS011;6689;53.400;12.486;2023-08-12T10:29:24;6.28;;;3.90;;
13244;SDS011;6689;53.400;12.486;2023-08-12T10:31:53;5.70;;;3.70;;
13244;SDS011;6689;53.400;12.486;2023-08-12T10:34:23;7.47;;;3.55;;
13244;SDS011;6689;53.400;12.486;2023-08-12T10:36:53;6.68;;;3.47;;
13244;SDS011;6689;53.400;12.486;2023-08-12T10:39:24;7.55;;;3.72;;
13244;SDS011;6689;53.400;12.486;2023-08-12T10:41:54;4.35;;;3.58;;
13244;SDS011;6689;53.400;12.486;2023-08-12T10:44:26;8.15;;;4.20;;
13244;SDS011;6689;53.400;12.486;2023-08-12T10:46:55;6.90;;;4.03;;
13244;SDS011;6689;53.400;12.486;2023-08-12T10:49:24;4.45;;;3.80;;
13244;SDS011;6689;53.400;12.486;2023-08-12T10:51:52;4.70;;;3.35;;
13244;SDS011;6689;53.400;12.486;2023-08-12T10:54:20;3.65;;;3.25;;
13244;SDS011;6689;53.400;12.486;2023-08-12T10:57:04;4.95;;;4.13;;
13244;SDS011;6689;53.400;12.486;2023-08-12T10:59:48;9.02;;;3.60;;
13244;SDS011;6689;53.400;12.486;2023-08-12T11:02:28;9.93;;;3.88;;
13244;SDS011;6689;53.400;12.486;2023-08-12T11:05:00;5.70;;;3.75;;
13244;SDS011;6689;53.400;12.486;2023-08-12T11:07:32;6.05;;;3.72;;
13244;SDS011;6689;53.400;12.486;2023-08-12T11:10:03;7.88;;;3.33;;
13244;SDS011;6689;53.400;12.486;2023-08-12T11:12:33;5.78;;;4.00;;
13244;SDS011;6689;53.400;12.486;2023-08-12T11:15:01;6.00;;;3.60;;
13244;SDS011;6689;53.400;12.486;2023-08-12T11:17:35;8.00;;;3.78;;
13244;SDS011;6689;53.400;12.486;2023-08-12T11:20:04;4.32;;;3.50;;
13244;SDS011;6689;53.400;12.486;2023-08-12T11:22:34;6.10;;;3.67;;
13244;SDS011;6689;53.400;12.486;2023-08-12T11:25:04;6.90;;;3.55;;
13244;SDS011;6689;53.400;12.486;2023-08-12T11:27:37;6.15;;;3.30;;
13244;SDS011;6689;53.400;12.486;2023-08-12T11:30:06;5.78;;;3.78;;
13244;SDS011;6689;53.400;12.486;2023-08-12T11:32:39;5.55;;;3.85;;
13244;SDS011;6689;53.400;12.486;2023-08-12T11:35:07;4.82;;;3.78;;
13244;SDS011;6689;53.400;12.486;2023-08-12T11:37:36;7.50;;;3.60;;
13244;SDS011;6689;53.400;12.486;2023-08-12T11:40:04;6.47;;;3.72;;
13244;SDS011;6689;53.400;12.486;2023-08-12T11:42:34;8.80;;;4.40;;
13244;SDS011;6689;53.400;12.486;2023-08-12T11:45:02;11.50;;;4.03;;
13244;SDS011;6689;53.400;12.486;2023-08-12T11:47:30;7.63;;;4.60;;
13244;SDS011;6689;53.400;12.486;2023-08-12T11:50:00;4.18;;;3.65;;
13244;SDS011;6689;53.400;12.486;2023-08-12T11:52:30;9.70;;;4.45;;
13244;SDS011;6689;53.400;12.486;2023-08-12T11:54:58;8.32;;;3.95;;
13244;SDS011;6689;53.400;12.486;2023-08-12T11:57:26;10.02;;;4.10;;
13244;SDS011;6689;53.400;12.486;2023-08-12T11:59:58;6.25;;;3.55;;
13244;SDS011;6689;53.400;12.486;2023-08-12T12:02:25;5.07;;;3.95;;
13244;SDS011;6689;53.400;12.486;2023-08-12T12:04:53;7.43;;;3.83;;
13244;SDS011;6689;53.400;12.486;2023-08-12T12:07:22;8.63;;;4.45;;
13244;SDS011;6689;53.400;12.486;2023-08-12T12:09:52;5.75;;;3.55;;
13244;SDS011;6689;53.400;12.486;2023-08-12T12:12:22;6.95;;;4.50;;
13244;SDS011;6689;53.400;12.486;2023-08-12T12:14:51;6.63;;;4.65;;
13244;SDS011;6689;53.400;12.486;2023-08-12T12:17:20;5.72;;;3.75;;
13244;SDS011;6689;53.400;12.486;2023-08-12T12:19:51;5.40;;;3.85;;
13244;SDS011;6689;53.400;12.486;2023-08-12T12:22:20;6.45;;;4.35;;
13244;SDS011;6689;53.400;12.486;2023-08-12T12:24:52;4.30;;;3.80;;
13244;SDS011;6689;53.400;12.486;2023-08-12T12:27:19;5.75;;;3.97;;
13244;SDS011;6689;53.400;12.486;2023-08-12T12:29:46;6.45;;;4.43;;
13244;SDS011;6689;53.400;12.486;2023-08-12T12:32:13;5.22;;;4.18;;
13244;SDS011;6689;53.400;12.486;2023-08-12T12:34:41;4.97;;;4.00;;
13244;SDS011;6689;53.400;12.486;2023-08-12T12:37:09;5.82;;;4.38;;
13244;SDS011;6689;53.400;12.486;2023-08-12T12:39:37;7.35;;;4.40;;
13244;SDS011;6689;53.400;12.486;2023-08-12T12:42:06;6.93;;;4.18;;
13244;SDS011;6689;53.400;12.486;2023-08-12T12:44:33;7.60;;;4.10;;
13244;SDS011;6689;53.400;12.486;2023-08-12T12:47:01;8.13;;;3.90;;
13244;SDS011;6689;53.400;12.486;2023-08-12T12:49:29;7.10;;;4.18;;
13244;SDS011;6689;53.400;12.486;2023-08-12T12:51:56;5.65;;;4.47;;
13244;SDS011;6689;53.400;12.486;2023-08-12T12:54:24;5.70;;;4.60;;
13244;SDS011;6689;53.400;12.486;2023-08-12T12:56:58;7.10;;;4.15;;
13244;SDS011;6689;53.400;12.486;2023-08-12T12:59:26;10.88;;;4.40;;
13244;SDS011;6689;53.400;12.486;2023-08-12T13:01:53;9.00;;;4.90;;
13244;SDS011;6689;53.400;12.486;2023-08-12T13:04:21;6.45;;;4.75;;
13244;SDS011;6689;53.400;12.486;2023-08-12T13:06:49;5.97;;;4.85;;
13244;SDS011;6689;53.400;12.486;2023-08-12T13:09:18;6.82;;;5.18;;
13244;SDS011;6689;53.400;12.486;2023-08-12T13:11:45;8.25;;;4.85;;
13244;SDS011;6689;53.400;12.486;2023-08-12T13:14:15;14.80;;;6.18;;
13244;SDS011;6689;53.400;12.486;2023-08-12T13:16:46;4.82;;;4.07;;
13244;SDS011;6689;53.400;12.486;2023-08-12T13:19:13;5.97;;;4.28;;
13244;SDS011;6689;53.400;12.486;2023-08-12T13:21:40;7.93;;;5.93;;
13244;SDS011;6689;53.400;12.486;2023-08-12T13:24:09;5.55;;;4.47;;
13244;SDS011;6689;53.400;12.486;2023-08-12T13:26:36;9.82;;;5.32;;
13244;SDS011;6689;53.400;12.486;2023-08-12T13:29:04;9.25;;;5.03;;
13244;SDS011;6689;53.400;12.486;2023-08-12T13:31:33;6.50;;;5.28;;
13244;SDS011;6689;53.400;12.486;2023-08-12T13:34:00;9.32;;;5.55;;
13244;SDS011;6689;53.400;12.486;2023-08-12T13:36:28;5.85;;;5.28;;
13244;SDS011;6689;53.400;12.486;2023-08-12T13:38:55;7.88;;;6.03;;
13244;SDS011;6689;53.400;12.486;2023-08-12T13:41:23;8.70;;;5.13;;
13244;SDS011;6689;53.400;12.486;2023-08-12T13:43:53;9.20;;;5.10;;
13244;SDS011;6689;53.400;12.486;2023-08-12T13:46:20;5.50;;;5.00;;
13244;SDS011;6689;53.400;12.486;2023-08-12T13:48:49;8.60;;;5.10;;
13244;SDS011;6689;53.400;12.486;2023-08-12T13:51:17;9.32;;;6.45;;
13244;SDS011;6689;53.400;12.486;2023-08-12T13:53:44;6.65;;;5.80;;
13244;SDS011;6689;53.400;12.486;2023-08-12T13:56:11;6.95;;;6.28;;
13244;SDS011;6689;53.400;12.486;2023-08-12T13:58:38;11.18;;;6.28;;
13244;SDS011;6689;53.400;12.486;2023-08-12T14:01:06;6.25;;;5.65;;
13244;SDS011;6689;53.400;12.486;2023-08-12T14:03:34;10.68;;;5.75;;
13244;SDS011;6689;53.400;12.486;2023-08-12T14:06:04;7.03;;;5.75;;
13244;SDS011;6689;53.400;12.486;2023-08-12T14:08:31;5.82;;;4.60;;
13244;SDS011;6689;53.400;12.486;2023-08-12T14:10:59;7.63;;;5.40;;
13244;SDS011;6689;53.400;12.486;2023-08-12T14:13:27;5.65;;;5.07;;
13244;SDS011;6689;53.400;12.486;2023-08-12T14:15:54;5.90;;;5.03;;
13244;SDS011;6689;53.400;12.486;2023-08-12T14:18:22;6.38;;;4.85;;
13244;SDS011;6689;53.400;12.486;2023-08-12T14:20:50;4.90;;;4.38;;
13244;SDS011;6689;53.400;12.486;2023-08-12T14:23:19;4.22;;;3.83;;
13244;SDS011;6689;53.400;12.486;2023-08-12T14:25:46;6.55;;;4.75;;
13244;SDS011;6689;53.400;12.486;2023-08-12T14:28:15;5.68;;;5.07;;
13244;SDS011;6689;53.400;12.486;2023-08-12T14:30:42;6.93;;;4.25;;
13244;SDS011;6689;53.400;12.486;2023-08-12T14:33:10;4.65;;;4.15;;
13244;SDS011;6689;53.400;12.486;2023-08-12T14:35:37;4.60;;;4.20;;
13244;SDS011;6689;53.400;12.486;2023-08-12T14:38:04;5.72;;;4.50;;
13244;SDS011;6689;53.400;12.486;2023-08-12T14:40:33;6.60;;;4.40;;
13244;SDS011;6689;53.400;12.486;2023-08-12T14:43:02;7.18;;;4.28;;
13244;SDS011;6689;53.400;12.486;2023-08-12T14:45:29;4.95;;;4.32;;
13244;SDS011;6689;53.400;12.486;2023-08-12T14:47:57;5.15;;;4.05;;
13244;SDS011;6689;53.400;12.486;2023-08-12T14:50:24;5.63;;;4.05;;
13244;SDS011;6689;53.400;12.486;2023-08-12T14:52:51;5.50;;;4.20;;
13244;SDS011;6689;53.400;12.486;2023-08-12T14:55:19;5.80;;;4.10;;